createdAt,value
2018-03-03T00:01:01.596Z,113.37
2018-03-03T00:03:28.736Z,116.62
2018-03-03T00:05:55.768Z,114.22
2018-03-03T00:08:22.785Z,119.82
2018-03-03T00:10:49.859Z,115.00
2018-03-03T00:13:16.774Z,114.88
2018-03-03T00:15:43.925Z,120.68
2018-03-03T00:18:10.861Z,117.03
2018-03-03T00:20:38.307Z,108.05
2018-03-03T00:23:05.691Z,106.35
2018-03-03T00:25:32.923Z,113.28
2018-03-03T00:28:00.266Z,115.85
2018-03-03T00:30:27.532Z,107.85
2018-03-03T00:32:54.713Z,108.90
2018-03-03T00:35:21.982Z,115.12
2018-03-03T00:37:49.062Z,121.25
2018-03-03T00:40:16.133Z,110.15
2018-03-03T00:42:43.412Z,120.95
2018-03-03T00:45:10.460Z,113.35
2018-03-03T00:47:37.439Z,114.85
2018-03-03T00:50:04.468Z,113.25
2018-03-03T00:52:31.537Z,111.53
2018-03-03T00:54:58.653Z,112.78
2018-03-03T00:57:25.632Z,125.00
2018-03-03T00:59:52.650Z,115.72
2018-03-03T01:02:19.588Z,107.20
2018-03-03T01:04:46.483Z,106.78
2018-03-03T01:07:13.493Z,108.90
2018-03-03T01:09:40.811Z,115.97
2018-03-03T01:12:08.080Z,103.05
2018-03-03T01:14:35.281Z,108.53
2018-03-03T01:17:02.264Z,103.20
2018-03-03T01:19:29.282Z,103.85
2018-03-03T01:21:56.332Z,106.45
2018-03-03T01:24:23.439Z,107.10
2018-03-03T01:26:50.396Z,114.30
2018-03-03T01:29:17.709Z,109.63
2018-03-03T01:31:44.879Z,107.32
2018-03-03T01:34:11.887Z,102.85
2018-03-03T01:36:38.865Z,112.70
2018-03-03T01:39:06.116Z,95.45
2018-03-03T01:41:33.293Z,94.32
2018-03-03T01:44:00.478Z,110.15
2018-03-03T01:46:27.488Z,107.72
2018-03-03T01:48:54.644Z,106.55
2018-03-03T01:51:37.430Z,107.90
2018-03-03T01:54:04.926Z,102.50
2018-03-03T01:56:31.993Z,95.20
2018-03-03T01:58:59.137Z,106.00
2018-03-03T02:01:26.474Z,104.57
2018-03-03T02:03:53.896Z,98.68
2018-03-03T02:06:21.100Z,102.75
2018-03-03T02:08:48.406Z,96.15
2018-03-03T02:11:15.617Z,92.75
2018-03-03T02:13:42.822Z,92.85
2018-03-03T02:16:09.903Z,87.03
2018-03-03T02:18:36.957Z,97.57
2018-03-03T02:21:04.529Z,92.37
2018-03-03T02:23:31.652Z,96.00
2018-03-03T02:25:59.026Z,105.95
2018-03-03T02:28:25.978Z,94.47
2018-03-03T02:30:53.555Z,101.40
2018-03-03T02:33:20.576Z,97.40
2018-03-03T02:35:48.234Z,87.05
2018-03-03T02:38:15.740Z,95.93
2018-03-03T02:40:42.712Z,96.28
2018-03-03T02:43:10.378Z,91.03
2018-03-03T02:45:37.744Z,99.05
2018-03-03T02:48:05.244Z,85.50
2018-03-03T02:50:32.492Z,96.18
2018-03-03T02:52:59.432Z,90.18
2018-03-03T02:55:26.650Z,105.05
2018-03-03T02:57:54.259Z,95.22
2018-03-03T03:00:21.451Z,101.18
2018-03-03T03:02:48.451Z,93.65
2018-03-03T03:05:16.307Z,90.87
2018-03-03T03:07:43.953Z,88.65
2018-03-03T03:10:11.497Z,95.10
2018-03-03T03:12:38.817Z,103.07
2018-03-03T03:15:05.954Z,92.47
2018-03-03T03:17:33.732Z,97.50
2018-03-03T03:20:01.645Z,101.93
2018-03-03T03:22:29.027Z,92.55
2018-03-03T03:24:55.906Z,96.45
2018-03-03T03:27:23.014Z,98.30
2018-03-03T03:29:49.976Z,90.62
2018-03-03T03:32:17.018Z,94.20
2018-03-03T03:34:44.334Z,103.90
2018-03-03T03:37:11.336Z,92.93
2018-03-03T03:39:38.457Z,94.50
2018-03-03T03:42:05.447Z,91.40
2018-03-03T03:44:32.649Z,83.45
2018-03-03T03:46:59.617Z,92.78
2018-03-03T03:49:26.793Z,90.30
2018-03-03T03:51:53.787Z,92.47
2018-03-03T03:54:20.797Z,98.18
2018-03-03T03:56:47.788Z,92.95
2018-03-03T03:59:14.845Z,102.72
2018-03-03T04:01:41.827Z,93.22
2018-03-03T04:04:08.834Z,88.43
2018-03-03T04:06:35.915Z,92.03
2018-03-03T04:09:03.198Z,86.40
2018-03-03T04:11:30.310Z,87.85
2018-03-03T04:13:57.464Z,84.70
2018-03-03T04:16:24.386Z,89.78
2018-03-03T04:18:51.414Z,91.70
2018-03-03T04:21:18.444Z,87.90
2018-03-03T04:23:45.504Z,94.25
2018-03-03T04:26:12.626Z,99.13
2018-03-03T04:28:39.698Z,101.85
2018-03-03T04:31:06.958Z,90.78
2018-03-03T04:33:34.159Z,83.55
2018-03-03T04:36:01.150Z,93.12
2018-03-03T04:38:28.227Z,103.32
2018-03-03T04:40:55.292Z,93.00
2018-03-03T04:43:22.465Z,95.35
2018-03-03T04:45:49.403Z,90.97
2018-03-03T04:48:16.395Z,96.70
2018-03-03T04:50:43.448Z,85.78
2018-03-03T04:53:10.503Z,89.78
2018-03-03T04:55:37.499Z,82.32
2018-03-03T04:58:04.716Z,89.28
2018-03-03T05:00:32.691Z,84.37
2018-03-03T05:02:59.676Z,84.60
2018-03-03T05:05:30.229Z,77.35
2018-03-03T05:07:59.989Z,84.80
2018-03-03T05:10:27.922Z,74.07
2018-03-03T05:12:57.920Z,79.57
2018-03-03T05:15:44.878Z,75.30
2018-03-03T05:18:26.712Z,74.25
2018-03-03T05:21:08.662Z,73.22
2018-03-03T05:23:41.562Z,75.00
2018-03-03T05:26:14.348Z,61.13
2018-03-03T05:28:47.268Z,70.07
2018-03-03T05:31:30.225Z,68.45
2018-03-03T05:34:12.334Z,67.93
2018-03-03T05:36:55.348Z,67.45
2018-03-03T05:39:38.103Z,80.43
2018-03-03T05:42:10.986Z,78.97
2018-03-03T05:44:43.906Z,82.57
2018-03-03T05:47:16.677Z,68.57
2018-03-03T05:49:49.530Z,68.72
2018-03-03T05:52:22.231Z,71.60
2018-03-03T05:54:55.020Z,65.22
2018-03-03T05:57:40.880Z,70.25
2018-03-03T06:00:25.719Z,72.25
2018-03-03T06:02:58.659Z,71.70
2018-03-03T06:05:42.476Z,70.90
2018-03-03T06:08:14.327Z,70.62
2018-03-03T06:10:42.344Z,65.70
2018-03-03T06:13:09.271Z,76.25
2018-03-03T06:15:36.445Z,68.60
2018-03-03T06:18:03.403Z,73.32
2018-03-03T06:20:30.317Z,67.18
2018-03-03T06:22:57.202Z,75.68
2018-03-03T06:25:24.204Z,65.35
2018-03-03T06:27:51.175Z,70.10
2018-03-03T06:30:18.148Z,76.62
2018-03-03T06:32:45.089Z,73.53
2018-03-03T06:35:12.234Z,76.93
2018-03-03T06:37:39.745Z,73.72
2018-03-03T06:40:06.604Z,64.03
2018-03-03T06:42:33.558Z,67.35
2018-03-03T06:45:00.639Z,61.08
2018-03-03T06:47:27.759Z,61.25
2018-03-03T06:49:54.875Z,56.35
2018-03-03T06:52:21.798Z,56.60
2018-03-03T06:54:48.789Z,58.38
2018-03-03T06:57:15.771Z,57.22
2018-03-03T06:59:42.669Z,54.45
2018-03-03T07:02:10.284Z,57.40
2018-03-03T07:04:37.270Z,80.32
2018-03-03T07:07:04.475Z,105.87
2018-03-03T07:09:31.526Z,66.18
2018-03-03T07:11:58.658Z,60.80
2018-03-03T07:14:26.780Z,85.12
2018-03-03T07:16:53.817Z,50.38
2018-03-03T07:19:21.044Z,49.95
2018-03-03T07:21:48.110Z,88.62
2018-03-03T07:24:15.140Z,90.87
2018-03-03T07:26:42.095Z,81.78
2018-03-03T07:29:09.089Z,47.55
2018-03-03T07:31:36.719Z,49.80
2018-03-03T07:34:03.856Z,41.78
2018-03-03T07:36:30.734Z,45.60
2018-03-03T07:38:57.924Z,50.12
2018-03-03T07:41:25.129Z,46.72
2018-03-03T07:43:52.399Z,46.63
2018-03-03T07:46:19.274Z,46.13
2018-03-03T07:48:46.405Z,47.00
2018-03-03T07:51:13.490Z,46.05
2018-03-03T07:53:40.603Z,44.53
2018-03-03T07:56:07.740Z,44.83
2018-03-03T07:58:40.455Z,44.63
2018-03-03T08:01:07.352Z,52.53
2018-03-03T08:03:34.406Z,45.55
2018-03-03T08:06:01.472Z,49.20
2018-03-03T08:08:28.385Z,50.25
2018-03-03T08:10:55.288Z,48.00
2018-03-03T08:13:22.231Z,50.65
2018-03-03T08:15:49.196Z,47.08
2018-03-03T08:18:16.160Z,49.30
2018-03-03T08:20:43.099Z,48.60
2018-03-03T08:23:10.060Z,48.97
2018-03-03T08:25:37.173Z,43.47
2018-03-03T08:28:04.349Z,48.83
2018-03-03T08:30:31.284Z,47.50
2018-03-03T08:32:58.208Z,46.50
2018-03-03T08:35:25.232Z,50.83
2018-03-03T08:37:52.276Z,45.78
2018-03-03T08:40:19.236Z,51.25
2018-03-03T08:42:46.249Z,49.70
2018-03-03T08:45:13.204Z,48.85
2018-03-03T08:47:40.173Z,52.28
2018-03-03T08:50:07.118Z,52.55
2018-03-03T08:52:34.162Z,51.08
2018-03-03T08:55:01.198Z,52.50
2018-03-03T08:57:28.161Z,48.47
2018-03-03T08:59:55.141Z,56.03
2018-03-03T09:02:22.130Z,57.35
2018-03-03T09:04:49.137Z,50.12
2018-03-03T09:07:16.129Z,46.63
2018-03-03T09:09:43.189Z,43.13
2018-03-03T09:12:10.117Z,47.03
2018-03-03T09:14:37.128Z,47.67
2018-03-03T09:17:04.451Z,54.43
2018-03-03T09:19:32.172Z,47.87
2018-03-03T09:21:59.185Z,51.97
2018-03-03T09:24:26.491Z,51.73
2018-03-03T09:26:53.544Z,51.03
2018-03-03T09:29:20.664Z,58.40
2018-03-03T09:31:47.572Z,52.97
2018-03-03T09:34:14.793Z,53.83
2018-03-03T09:36:41.834Z,57.93
2018-03-03T09:39:08.685Z,60.40
2018-03-03T09:41:36.054Z,48.40
2018-03-03T09:44:03.290Z,54.03
2018-03-03T09:46:30.276Z,52.23
2018-03-03T09:48:57.342Z,53.53
2018-03-03T09:51:24.308Z,52.13
2018-03-03T09:53:51.219Z,52.73
2018-03-03T09:56:18.133Z,47.97
2018-03-03T09:58:45.116Z,53.30
2018-03-03T10:01:12.174Z,55.80
2018-03-03T10:03:39.073Z,52.07
2018-03-03T10:06:06.017Z,50.80
2018-03-03T10:08:33.080Z,52.37
2018-03-03T10:11:00.073Z,56.97
2018-03-03T10:13:26.956Z,49.93
2018-03-03T10:15:54.029Z,53.17
2018-03-03T10:18:20.957Z,50.40
2018-03-03T10:20:47.937Z,56.03
2018-03-03T10:23:15.552Z,54.13
2018-03-03T10:25:43.083Z,52.07
2018-03-03T10:28:10.923Z,51.43
2018-03-03T10:30:38.756Z,54.27
2018-03-03T10:33:05.907Z,51.23
2018-03-03T10:35:33.299Z,50.17
2018-03-03T10:38:00.613Z,48.10
2018-03-03T10:40:28.326Z,52.67
2018-03-03T10:42:55.306Z,50.77
2018-03-03T10:45:22.247Z,50.80
2018-03-03T10:47:49.262Z,55.00
2018-03-03T10:50:16.182Z,51.37
2018-03-03T10:52:43.145Z,51.10
2018-03-03T10:55:10.165Z,53.27
2018-03-03T10:57:37.070Z,50.97
2018-03-03T11:00:04.213Z,53.87
2018-03-03T11:02:31.265Z,50.70
2018-03-03T11:04:58.215Z,49.03
2018-03-03T11:07:25.081Z,52.43
2018-03-03T11:09:51.939Z,52.90
2018-03-03T11:12:19.042Z,61.47
2018-03-03T11:14:46.413Z,57.37
2018-03-03T11:17:14.053Z,49.80
2018-03-03T11:19:42.014Z,54.40
2018-03-03T11:22:09.325Z,54.17
2018-03-03T11:24:36.830Z,54.57
2018-03-03T11:27:04.382Z,54.93
2018-03-03T11:29:31.648Z,53.00
2018-03-03T11:31:58.615Z,51.63
2018-03-03T11:34:26.573Z,48.63
2018-03-03T11:36:53.755Z,46.83
2018-03-03T11:39:21.154Z,45.33
2018-03-03T11:41:48.569Z,41.90
2018-03-03T11:44:16.250Z,39.30
2018-03-03T11:46:43.426Z,35.80
2018-03-03T11:49:10.559Z,39.30
2018-03-03T11:51:37.576Z,34.20
2018-03-03T11:54:05.641Z,40.57
2018-03-03T11:56:33.050Z,39.87
2018-03-03T11:59:00.177Z,39.73
2018-03-03T12:01:27.487Z,44.43
2018-03-03T12:03:54.768Z,48.97
2018-03-03T12:06:21.868Z,44.80
2018-03-03T12:08:49.437Z,51.93
2018-03-03T12:11:17.089Z,39.80
2018-03-03T12:13:45.685Z,46.27
2018-03-03T12:16:13.533Z,38.00
2018-03-03T12:18:40.550Z,38.33
2018-03-03T12:21:09.873Z,39.27
2018-03-03T12:23:37.210Z,35.23
2018-03-03T12:26:04.565Z,31.43
2018-03-03T12:28:32.098Z,30.70
2018-03-03T12:30:59.718Z,32.17
2018-03-03T12:33:27.099Z,32.47
2018-03-03T12:35:54.597Z,32.80
2018-03-03T12:38:21.914Z,33.60
2018-03-03T12:40:48.961Z,31.03
2018-03-03T12:43:16.330Z,34.00
2018-03-03T12:45:43.665Z,33.17
2018-03-03T12:48:11.167Z,36.43
2018-03-03T12:50:39.424Z,40.03
2018-03-03T12:53:06.971Z,41.27
2018-03-03T12:55:35.906Z,31.80
2018-03-03T12:58:04.100Z,35.13
2018-03-03T13:00:31.545Z,37.57
2018-03-03T13:02:58.556Z,38.13
2018-03-03T13:05:26.373Z,34.30
2018-03-03T13:07:55.243Z,38.83
2018-03-03T13:10:23.270Z,35.60
2018-03-03T13:12:55.196Z,41.27
2018-03-03T13:15:27.632Z,43.13
2018-03-03T13:17:59.450Z,43.33
2018-03-03T13:20:29.367Z,43.63
2018-03-03T13:22:57.853Z,44.77
2018-03-03T13:25:24.995Z,47.40
2018-03-03T13:27:52.028Z,47.40
2018-03-03T13:30:19.218Z,41.50
2018-03-03T13:32:46.246Z,38.67
2018-03-03T13:35:13.149Z,48.30
2018-03-03T13:37:40.149Z,39.60
2018-03-03T13:40:07.275Z,41.83
2018-03-03T13:42:34.213Z,42.07
2018-03-03T13:45:01.106Z,46.63
2018-03-03T13:47:28.065Z,45.23
2018-03-03T13:49:55.023Z,45.37
2018-03-03T13:52:21.911Z,47.30
2018-03-03T13:54:48.919Z,41.73
2018-03-03T13:57:16.006Z,46.13
2018-03-03T13:59:42.987Z,48.43
2018-03-03T14:02:09.926Z,45.20
2018-03-03T14:04:36.845Z,45.03
2018-03-03T14:07:03.965Z,43.03
2018-03-03T14:09:31.158Z,44.67
2018-03-03T14:11:58.191Z,40.17
2018-03-03T14:14:25.309Z,38.63
2018-03-03T14:16:52.252Z,38.45
2018-03-03T14:19:19.174Z,43.00
2018-03-03T14:21:46.135Z,45.42
2018-03-03T14:24:13.242Z,40.10
2018-03-03T14:26:40.309Z,41.15
2018-03-03T14:29:07.322Z,43.60
2018-03-03T14:31:34.300Z,41.83
2018-03-03T14:34:01.293Z,40.83
2018-03-03T14:36:28.309Z,40.38
2018-03-03T14:38:55.750Z,40.75
2018-03-03T14:41:23.391Z,38.92
2018-03-03T14:43:50.974Z,44.72
2018-03-03T14:46:17.990Z,41.37
2018-03-03T14:48:45.329Z,40.38
2018-03-03T14:51:13.336Z,33.83
2018-03-03T14:53:40.402Z,39.13
2018-03-03T14:56:08.950Z,40.75
2018-03-03T14:58:36.149Z,35.53
2018-03-03T15:01:03.538Z,33.72
2018-03-03T15:03:30.984Z,36.97
2018-03-03T15:05:58.358Z,38.13
2018-03-03T15:08:25.540Z,39.42
2018-03-03T15:10:53.049Z,38.40
2018-03-03T15:13:20.692Z,39.15
2018-03-03T15:15:47.761Z,41.33
2018-03-03T15:18:14.885Z,37.97
2018-03-03T15:20:43.898Z,41.28
2018-03-03T15:23:11.428Z,36.45
2018-03-03T15:25:38.618Z,37.25
2018-03-03T15:28:05.740Z,37.10
2018-03-03T15:30:33.693Z,38.80
2018-03-03T15:33:00.947Z,34.78
2018-03-03T15:35:28.828Z,40.22
2018-03-03T15:37:55.775Z,37.65
2018-03-03T15:40:22.786Z,37.80
2018-03-03T15:42:49.884Z,35.05
2018-03-03T15:45:17.097Z,40.10
2018-03-03T15:47:44.017Z,41.50
2018-03-03T15:50:11.855Z,41.83
2018-03-03T15:52:39.166Z,37.53
2018-03-03T15:55:06.709Z,41.30
2018-03-03T15:57:34.054Z,44.15
2018-03-03T16:00:02.382Z,40.03
2018-03-03T16:02:29.400Z,41.92
2018-03-03T16:04:56.344Z,44.67
2018-03-03T16:07:23.311Z,42.78
2018-03-03T16:09:50.286Z,45.97
2018-03-03T16:12:17.208Z,45.30
2018-03-03T16:14:44.141Z,57.03
2018-03-03T16:17:11.126Z,45.65
2018-03-03T16:19:38.091Z,45.90
2018-03-03T16:22:04.964Z,44.85
2018-03-03T16:24:31.827Z,43.35
2018-03-03T16:26:58.716Z,46.03
2018-03-03T16:29:25.688Z,45.45
2018-03-03T16:31:52.684Z,45.42
2018-03-03T16:34:19.741Z,42.40
2018-03-03T16:36:46.701Z,46.45
2018-03-03T16:39:13.760Z,38.63
2018-03-03T16:41:40.670Z,42.05
2018-03-03T16:44:07.759Z,43.65
2018-03-03T16:46:34.862Z,38.47
2018-03-03T16:49:02.001Z,42.97
2018-03-03T16:51:29.158Z,43.22
2018-03-03T16:53:57.123Z,40.47
2018-03-03T16:56:24.045Z,37.08
2018-03-03T16:58:51.123Z,33.00
2018-03-03T17:01:19.904Z,38.30
2018-03-03T17:03:47.188Z,37.28
2018-03-03T17:06:14.197Z,41.00
2018-03-03T17:08:41.171Z,37.53
2018-03-03T17:11:08.608Z,34.85
2018-03-03T17:13:35.850Z,36.08
2018-03-03T17:16:03.845Z,33.60
2018-03-03T17:18:30.943Z,38.88
2018-03-03T17:20:58.078Z,51.55
2018-03-03T17:23:25.085Z,56.55
2018-03-03T17:25:52.102Z,49.20
2018-03-03T17:28:19.109Z,50.20
2018-03-03T17:30:46.084Z,36.97
2018-03-03T17:33:13.117Z,45.50
2018-03-03T17:35:40.092Z,39.17
2018-03-03T17:38:07.365Z,33.08
2018-03-03T17:40:34.550Z,32.05
2018-03-03T17:43:01.647Z,36.67
2018-03-03T17:45:28.589Z,36.95
2018-03-03T17:47:55.596Z,39.85
2018-03-03T17:50:22.567Z,38.13
2018-03-03T17:52:49.507Z,38.50
2018-03-03T17:55:16.647Z,36.50
2018-03-03T17:57:44.678Z,40.28
2018-03-03T18:00:11.661Z,39.33
2018-03-03T18:02:38.647Z,40.75
2018-03-03T18:05:05.666Z,45.28
2018-03-03T18:07:32.632Z,46.70
2018-03-03T18:09:59.562Z,43.35
2018-03-03T18:12:26.736Z,44.85
2018-03-03T18:14:53.876Z,39.95
2018-03-03T18:17:20.859Z,38.72
2018-03-03T18:19:47.833Z,40.92
2018-03-03T18:22:14.765Z,42.83
2018-03-03T18:24:41.800Z,42.83
2018-03-03T18:27:08.751Z,43.83
2018-03-03T18:29:35.896Z,37.25
2018-03-03T18:32:02.973Z,36.67
2018-03-03T18:34:30.018Z,38.25
2018-03-03T18:36:57.119Z,41.80
2018-03-03T18:39:24.138Z,38.22
2018-03-03T18:41:51.076Z,37.58
2018-03-03T18:44:18.277Z,38.67
2018-03-03T18:46:45.273Z,40.03
2018-03-03T18:49:12.403Z,40.65
2018-03-03T18:51:39.394Z,38.08
2018-03-03T18:54:06.470Z,36.03
2018-03-03T18:56:33.399Z,41.17
2018-03-03T18:59:00.635Z,42.35
2018-03-03T19:01:27.668Z,38.70
2018-03-03T19:03:54.730Z,37.25
2018-03-03T19:06:21.972Z,38.63
2018-03-03T19:08:48.830Z,38.08
2018-03-03T19:11:15.932Z,42.60
2018-03-03T19:13:42.977Z,35.95
2018-03-03T19:16:10.025Z,39.33
2018-03-03T19:18:37.246Z,40.97
2018-03-03T19:21:04.293Z,36.38
2018-03-03T19:23:31.401Z,42.00
2018-03-03T19:25:58.550Z,37.25
2018-03-03T19:28:25.521Z,42.80
2018-03-03T19:30:52.709Z,37.42
2018-03-03T19:33:19.693Z,42.30
2018-03-03T19:35:46.705Z,41.45
2018-03-03T19:38:13.788Z,40.05
2018-03-03T19:40:40.715Z,35.15
2018-03-03T19:43:07.770Z,41.85
2018-03-03T19:45:34.926Z,43.28
2018-03-03T19:48:02.220Z,39.97
2018-03-03T19:50:29.185Z,43.53
2018-03-03T19:52:56.233Z,47.08
2018-03-03T19:55:23.279Z,44.90
2018-03-03T19:57:50.249Z,45.10
2018-03-03T20:00:17.202Z,44.10
2018-03-03T20:02:44.421Z,40.58
2018-03-03T20:05:11.608Z,43.85
2018-03-03T20:07:39.856Z,45.58
2018-03-03T20:10:06.935Z,44.78
2018-03-03T20:12:34.035Z,42.22
2018-03-03T20:15:01.066Z,42.00
2018-03-03T20:17:28.228Z,46.03
2018-03-03T20:19:55.357Z,47.13
2018-03-03T20:22:22.334Z,41.60
2018-03-03T20:24:49.344Z,46.78
2018-03-03T20:27:16.345Z,50.17
2018-03-03T20:29:43.469Z,45.97
2018-03-03T20:32:10.473Z,42.08
2018-03-03T20:34:37.610Z,48.45
2018-03-03T20:37:04.789Z,47.90
2018-03-03T20:39:31.948Z,51.33
2018-03-03T20:41:58.806Z,48.95
2018-03-03T20:44:25.832Z,50.38
2018-03-03T20:46:52.905Z,49.97
2018-03-03T20:49:19.954Z,57.92
2018-03-03T20:51:46.961Z,50.97
2018-03-03T20:54:14.074Z,53.08
2018-03-03T20:56:40.985Z,50.45
2018-03-03T20:59:08.238Z,54.38
2018-03-03T21:01:35.254Z,53.58
2018-03-03T21:04:02.559Z,63.03
2018-03-03T21:06:29.622Z,65.00
2018-03-03T21:08:56.874Z,65.95
2018-03-03T21:11:25.594Z,61.20
2018-03-03T21:13:54.160Z,63.13
2018-03-03T21:16:21.165Z,69.78
2018-03-03T21:18:48.236Z,74.70
2018-03-03T21:21:15.222Z,77.68
2018-03-03T21:23:42.214Z,76.00
2018-03-03T21:29:20.271Z,63.87
2018-03-03T21:31:47.251Z,66.03
2018-03-03T21:34:14.270Z,69.50
2018-03-03T21:36:41.258Z,73.87
2018-03-03T21:39:08.490Z,70.45
2018-03-03T21:41:35.500Z,68.53
2018-03-03T21:44:02.510Z,72.20
2018-03-03T21:46:29.549Z,82.12
2018-03-03T21:48:56.460Z,75.80
2018-03-03T21:51:23.496Z,78.95
2018-03-03T21:53:50.638Z,81.57
2018-03-03T21:56:17.632Z,83.47
2018-03-03T21:58:44.789Z,78.93
2018-03-03T22:01:11.907Z,86.18
2018-03-03T22:03:38.863Z,77.15
2018-03-03T22:06:06.017Z,74.45
2018-03-03T22:08:33.076Z,85.03
2018-03-03T22:11:00.122Z,88.32
2018-03-03T22:13:27.069Z,79.70
2018-03-03T22:15:54.124Z,83.03
2018-03-03T22:18:21.823Z,81.37
2018-03-03T22:20:48.810Z,83.32
2018-03-03T22:23:15.809Z,89.03
2018-03-03T22:25:42.790Z,74.70
2018-03-03T22:28:10.044Z,77.85
2018-03-03T22:30:37.214Z,97.22
2018-03-03T22:33:04.312Z,88.65
2018-03-03T22:35:31.276Z,84.43
2018-03-03T22:37:58.555Z,96.20
2018-03-03T22:40:25.502Z,93.93
2018-03-03T22:42:52.533Z,96.15
2018-03-03T22:45:19.526Z,91.40
2018-03-03T22:47:46.437Z,88.32
2018-03-03T22:50:13.457Z,96.53
2018-03-03T22:52:40.389Z,97.88
2018-03-03T22:55:07.392Z,89.47
2018-03-03T22:57:34.325Z,94.40
2018-03-03T23:00:01.326Z,92.88
2018-03-03T23:02:28.306Z,98.30
2018-03-03T23:04:55.298Z,92.75
2018-03-03T23:07:22.216Z,96.12
2018-03-03T23:09:49.299Z,108.37
2018-03-03T23:12:16.349Z,101.03
2018-03-03T23:14:43.380Z,97.22
2018-03-03T23:17:10.440Z,97.72
2018-03-03T23:19:37.466Z,91.72
2018-03-03T23:22:04.563Z,95.53
2018-03-03T23:24:31.576Z,103.68
2018-03-03T23:26:58.479Z,105.82
2018-03-03T23:29:25.602Z,102.07
2018-03-03T23:31:52.714Z,94.15
2018-03-03T23:34:19.646Z,106.57
2018-03-03T23:36:46.626Z,98.37
2018-03-03T23:39:13.754Z,101.35
2018-03-03T23:41:40.778Z,108.47
2018-03-03T23:44:07.863Z,97.82
2018-03-03T23:46:34.938Z,96.50
2018-03-03T23:49:01.898Z,92.88
2018-03-03T23:51:28.895Z,97.30
2018-03-03T23:53:56.020Z,93.05
2018-03-03T23:56:23.029Z,100.20
2018-03-03T23:58:50.003Z,93.57
